sensor_id;sensor_type;location;lat;lon;timestamp;P1;durP1;ratioP1;P2;durP2;ratioP2
73089;SDS011;61269;49.450;8.610;2022-12-26T00:02:12;8.07;;;4.18;;
73089;SDS011;61269;49.450;8.610;2022-12-26T00:04:41;7.63;;;4.15;;
73089;SDS011;61269;49.450;8.610;2022-12-26T00:07:20;8.40;;;3.80;;
73089;SDS011;61269;49.450;8.610;2022-12-26T00:09:48;7.17;;;3.53;;
73089;SDS011;61269;49.450;8.610;2022-12-26T00:12:16;8.98;;;4.15;;
73089;SDS011;61269;49.450;8.610;2022-12-26T00:14:44;10.27;;;4.15;;
73089;SDS011;61269;49.450;8.610;2022-12-26T00:17:12;8.95;;;4.03;;
73089;SDS011;61269;49.450;8.610;2022-12-26T00:19:40;9.30;;;3.50;;
73089;SDS011;61269;49.450;8.610;2022-12-26T00:22:09;7.53;;;3.70;;
73089;SDS011;61269;49.450;8.610;2022-12-26T00:24:39;7.93;;;3.60;;
73089;SDS011;61269;49.450;8.610;2022-12-26T00:27:08;9.90;;;3.88;;
73089;SDS011;61269;49.450;8.610;2022-12-26T00:29:37;10.40;;;3.90;;
73089;SDS011;61269;49.450;8.610;2022-12-26T00:32:05;8.18;;;3.60;;
73089;SDS011;61269;49.450;8.610;2022-12-26T00:34:33;7.60;;;3.87;;
73089;SDS011;61269;49.450;8.610;2022-12-26T00:37:01;7.43;;;3.40;;
73089;SDS011;61269;49.450;8.610;2022-12-26T00:39:29;8.57;;;3.70;;
73089;SDS011;61269;49.450;8.610;2022-12-26T00:41:59;8.77;;;3.35;;
73089;SDS011;61269;49.450;8.610;2022-12-26T00:44:27;9.00;;;3.45;;
73089;SDS011;61269;49.450;8.610;2022-12-26T00:46:55;8.83;;;3.57;;
73089;SDS011;61269;49.450;8.610;2022-12-26T00:49:23;8.02;;;3.80;;
73089;SDS011;61269;49.450;8.610;2022-12-26T00:51:51;8.63;;;3.53;;
73089;SDS011;61269;49.450;8.610;2022-12-26T00:54:20;7.30;;;3.28;;
73089;SDS011;61269;49.450;8.610;2022-12-26T00:56:47;8.48;;;3.40;;
73089;SDS011;61269;49.450;8.610;2022-12-26T00:59:17;9.13;;;3.60;;
73089;SDS011;61269;49.450;8.610;2022-12-26T01:01:45;7.78;;;3.28;;
73089;SDS011;61269;49.450;8.610;2022-12-26T01:04:13;7.28;;;3.53;;
73089;SDS011;61269;49.450;8.610;2022-12-26T01:06:41;6.15;;;3.13;;
73089;SDS011;61269;49.450;8.610;2022-12-26T01:09:10;7.82;;;3.70;;
73089;SDS011;61269;49.450;8.610;2022-12-26T01:11:40;8.03;;;3.63;;
73089;SDS011;61269;49.450;8.610;2022-12-26T01:14:10;8.52;;;3.85;;
73089;SDS011;61269;49.450;8.610;2022-12-26T01:16:40;7.70;;;3.13;;
73089;SDS011;61269;49.450;8.610;2022-12-26T01:19:10;7.35;;;3.30;;
73089;SDS011;61269;49.450;8.610;2022-12-26T01:21:39;6.47;;;2.70;;
73089;SDS011;61269;49.450;8.610;2022-12-26T01:24:08;6.97;;;3.17;;
73089;SDS011;61269;49.450;8.610;2022-12-26T01:26:36;6.93;;;3.17;;
73089;SDS011;61269;49.450;8.610;2022-12-26T01:29:05;8.20;;;3.72;;
73089;SDS011;61269;49.450;8.610;2022-12-26T01:31:33;6.57;;;3.10;;
73089;SDS011;61269;49.450;8.610;2022-12-26T01:34:02;7.68;;;3.20;;
73089;SDS011;61269;49.450;8.610;2022-12-26T01:36:30;7.27;;;2.90;;
73089;SDS011;61269;49.450;8.610;2022-12-26T01:38:58;7.25;;;3.53;;
73089;SDS011;61269;49.450;8.610;2022-12-26T01:41:27;7.45;;;3.20;;
73089;SDS011;61269;49.450;8.610;2022-12-26T01:43:58;10.32;;;3.80;;
73089;SDS011;61269;49.450;8.610;2022-12-26T01:46:30;7.55;;;3.10;;
73089;SDS011;61269;49.450;8.610;2022-12-26T01:49:06;8.07;;;3.33;;
73089;SDS011;61269;49.450;8.610;2022-12-26T01:51:53;6.90;;;3.35;;
73089;SDS011;61269;49.450;8.610;2022-12-26T01:54:24;7.25;;;3.70;;
73089;SDS011;61269;49.450;8.610;2022-12-26T01:57:08;6.90;;;3.13;;
73089;SDS011;61269;49.450;8.610;2022-12-26T01:59:40;8.23;;;3.25;;
73089;SDS011;61269;49.450;8.610;2022-12-26T02:02:08;7.13;;;3.30;;
73089;SDS011;61269;49.450;8.610;2022-12-26T02:04:40;7.55;;;3.28;;
73089;SDS011;61269;49.450;8.610;2022-12-26T02:07:30;8.05;;;3.58;;
73089;SDS011;61269;49.450;8.610;2022-12-26T02:09:59;7.95;;;3.40;;
73089;SDS011;61269;49.450;8.610;2022-12-26T02:12:28;6.75;;;3.25;;
73089;SDS011;61269;49.450;8.610;2022-12-26T02:15:04;8.00;;;3.90;;
73089;SDS011;61269;49.450;8.610;2022-12-26T02:17:34;7.78;;;3.45;;
73089;SDS011;61269;49.450;8.610;2022-12-26T02:20:07;8.20;;;3.80;;
73089;SDS011;61269;49.450;8.610;2022-12-26T02:26:06;8.63;;;3.78;;
73089;SDS011;61269;49.450;8.610;2022-12-26T02:31:43;8.90;;;3.20;;
73089;SDS011;61269;49.450;8.610;2022-12-26T02:34:16;8.20;;;3.08;;
73089;SDS011;61269;49.450;8.610;2022-12-26T02:39:43;7.43;;;3.30;;
73089;SDS011;61269;49.450;8.610;2022-12-26T02:42:21;7.80;;;3.23;;
73089;SDS011;61269;49.450;8.610;2022-12-26T02:44:55;6.72;;;2.97;;
73089;SDS011;61269;49.450;8.610;2022-12-26T02:47:48;7.45;;;3.28;;
73089;SDS011;61269;49.450;8.610;2022-12-26T02:50:22;6.85;;;3.13;;
73089;SDS011;61269;49.450;8.610;2022-12-26T02:53:10;6.55;;;3.08;;
73089;SDS011;61269;49.450;8.610;2022-12-26T02:55:58;6.43;;;3.00;;
73089;SDS011;61269;49.450;8.610;2022-12-26T02:58:47;7.43;;;3.53;;
73089;SDS011;61269;49.450;8.610;2022-12-26T03:01:37;7.30;;;3.38;;
73089;SDS011;61269;49.450;8.610;2022-12-26T03:04:27;6.60;;;2.78;;
73089;SDS011;61269;49.450;8.610;2022-12-26T03:07:17;8.40;;;3.20;;
73089;SDS011;61269;49.450;8.610;2022-12-26T03:10:11;7.13;;;2.97;;
73089;SDS011;61269;49.450;8.610;2022-12-26T03:13:01;7.00;;;3.40;;
73089;SDS011;61269;49.450;8.610;2022-12-26T03:15:40;7.07;;;3.08;;
73089;SDS011;61269;49.450;8.610;2022-12-26T03:18:29;6.25;;;2.42;;
73089;SDS011;61269;49.450;8.610;2022-12-26T03:21:21;9.50;;;3.15;;
73089;SDS011;61269;49.450;8.610;2022-12-26T03:23:51;6.73;;;3.20;;
73089;SDS011;61269;49.450;8.610;2022-12-26T03:26:20;7.03;;;3.13;;
73089;SDS011;61269;49.450;8.610;2022-12-26T03:29:06;7.20;;;2.80;;
73089;SDS011;61269;49.450;8.610;2022-12-26T03:31:53;6.35;;;2.95;;
73089;SDS011;61269;49.450;8.610;2022-12-26T03:34:21;6.93;;;3.13;;
73089;SDS011;61269;49.450;8.610;2022-12-26T03:37:03;9.37;;;3.20;;
73089;SDS011;61269;49.450;8.610;2022-12-26T03:40:13;5.10;;;2.60;;
73089;SDS011;61269;49.450;8.610;2022-12-26T03:43:06;7.20;;;2.90;;
73089;SDS011;61269;49.450;8.610;2022-12-26T03:45:58;6.85;;;3.10;;
73089;SDS011;61269;49.450;8.610;2022-12-26T03:48:56;7.25;;;2.80;;
73089;SDS011;61269;49.450;8.610;2022-12-26T03:51:49;7.13;;;2.80;;
73089;SDS011;61269;49.450;8.610;2022-12-26T03:54:46;7.15;;;2.85;;
73089;SDS011;61269;49.450;8.610;2022-12-26T03:57:37;6.72;;;2.70;;
73089;SDS011;61269;49.450;8.610;2022-12-26T04:00:25;5.93;;;2.80;;
73089;SDS011;61269;49.450;8.610;2022-12-26T04:03:13;7.10;;;2.67;;
73089;SDS011;61269;49.450;8.610;2022-12-26T04:06:00;5.83;;;2.70;;
73089;SDS011;61269;49.450;8.610;2022-12-26T04:08:48;7.38;;;2.80;;
73089;SDS011;61269;49.450;8.610;2022-12-26T04:11:39;14.02;;;3.65;;
73089;SDS011;61269;49.450;8.610;2022-12-26T04:14:31;6.47;;;2.70;;
73089;SDS011;61269;49.450;8.610;2022-12-26T04:17:31;5.80;;;2.80;;
73089;SDS011;61269;49.450;8.610;2022-12-26T04:20:34;6.90;;;2.80;;
73089;SDS011;61269;49.450;8.610;2022-12-26T04:23:05;6.10;;;2.78;;
73089;SDS011;61269;49.450;8.610;2022-12-26T04:26:00;5.95;;;2.65;;
73089;SDS011;61269;49.450;8.610;2022-12-26T04:28:48;10.93;;;3.80;;
73089;SDS011;61269;49.450;8.610;2022-12-26T04:31:35;8.45;;;3.30;;
73089;SDS011;61269;49.450;8.610;2022-12-26T04:34:27;7.43;;;2.87;;
73089;SDS011;61269;49.450;8.610;2022-12-26T04:37:17;7.10;;;3.08;;
73089;SDS011;61269;49.450;8.610;2022-12-26T04:40:06;8.98;;;3.80;;
73089;SDS011;61269;49.450;8.610;2022-12-26T04:42:54;8.38;;;3.92;;
73089;SDS011;61269;49.450;8.610;2022-12-26T04:46:02;7.63;;;3.30;;
73089;SDS011;61269;49.450;8.610;2022-12-26T04:48:30;6.67;;;3.30;;
73089;SDS011;61269;49.450;8.610;2022-12-26T04:51:17;8.52;;;4.15;;
73089;SDS011;61269;49.450;8.610;2022-12-26T04:53:45;9.68;;;4.10;;
73089;SDS011;61269;49.450;8.610;2022-12-26T04:56:13;7.25;;;3.25;;
73089;SDS011;61269;49.450;8.610;2022-12-26T04:58:42;5.70;;;2.80;;
73089;SDS011;61269;49.450;8.610;2022-12-26T05:01:12;7.70;;;3.07;;
73089;SDS011;61269;49.450;8.610;2022-12-26T05:03:57;7.97;;;2.88;;
73089;SDS011;61269;49.450;8.610;2022-12-26T05:06:43;6.72;;;2.50;;
73089;SDS011;61269;49.450;8.610;2022-12-26T05:09:29;8.35;;;2.92;;
73089;SDS011;61269;49.450;8.610;2022-12-26T05:12:04;5.43;;;2.63;;
73089;SDS011;61269;49.450;8.610;2022-12-26T05:14:33;7.67;;;2.90;;
73089;SDS011;61269;49.450;8.610;2022-12-26T05:17:04;11.00;;;2.80;;
73089;SDS011;61269;49.450;8.610;2022-12-26T05:19:51;5.90;;;2.72;;
73089;SDS011;61269;49.450;8.610;2022-12-26T05:22:38;8.10;;;2.92;;
73089;SDS011;61269;49.450;8.610;2022-12-26T05:25:25;6.03;;;2.63;;
73089;SDS011;61269;49.450;8.610;2022-12-26T05:28:12;6.57;;;2.80;;
73089;SDS011;61269;49.450;8.610;2022-12-26T05:31:00;7.70;;;2.97;;
73089;SDS011;61269;49.450;8.610;2022-12-26T05:33:30;6.82;;;2.38;;
73089;SDS011;61269;49.450;8.610;2022-12-26T05:36:16;7.57;;;2.63;;
73089;SDS011;61269;49.450;8.610;2022-12-26T05:38:46;5.95;;;2.40;;
73089;SDS011;61269;49.450;8.610;2022-12-26T05:41:15;6.10;;;2.70;;
73089;SDS011;61269;49.450;8.610;2022-12-26T05:43:43;5.85;;;2.88;;
73089;SDS011;61269;49.450;8.610;2022-12-26T05:46:12;8.20;;;2.58;;
73089;SDS011;61269;49.450;8.610;2022-12-26T05:48:42;5.78;;;2.70;;
73089;SDS011;61269;49.450;8.610;2022-12-26T05:51:10;10.38;;;3.70;;
73089;SDS011;61269;49.450;8.610;2022-12-26T05:53:38;6.70;;;2.70;;
73089;SDS011;61269;49.450;8.610;2022-12-26T05:56:08;5.97;;;2.80;;
73089;SDS011;61269;49.450;8.610;2022-12-26T05:58:38;5.65;;;2.55;;
73089;SDS011;61269;49.450;8.610;2022-12-26T06:01:07;6.40;;;2.65;;
73089;SDS011;61269;49.450;8.610;2022-12-26T06:03:37;8.43;;;3.05;;
73089;SDS011;61269;49.450;8.610;2022-12-26T06:06:07;6.90;;;2.83;;
73089;SDS011;61269;49.450;8.610;2022-12-26T06:08:36;8.07;;;3.00;;
73089;SDS011;61269;49.450;8.610;2022-12-26T06:11:04;7.50;;;3.03;;
73089;SDS011;61269;49.450;8.610;2022-12-26T06:13:35;6.68;;;2.85;;
73089;SDS011;61269;49.450;8.610;2022-12-26T06:16:04;7.80;;;2.88;;
73089;SDS011;61269;49.450;8.610;2022-12-26T06:18:33;6.07;;;2.60;;
73089;SDS011;61269;49.450;8.610;2022-12-26T06:21:02;6.68;;;2.60;;
73089;SDS011;61269;49.450;8.610;2022-12-26T06:23:32;6.00;;;2.65;;
73089;SDS011;61269;49.450;8.610;2022-12-26T06:26:00;6.30;;;2.78;;
73089;SDS011;61269;49.450;8.610;2022-12-26T06:28:29;6.40;;;2.90;;
73089;SDS011;61269;49.450;8.610;2022-12-26T06:31:00;7.10;;;2.70;;
73089;SDS011;61269;49.450;8.610;2022-12-26T06:33:30;6.47;;;2.70;;
73089;SDS011;61269;49.450;8.610;2022-12-26T06:36:02;7.70;;;2.78;;
73089;SDS011;61269;49.450;8.610;2022-12-26T06:38:32;6.82;;;3.08;;
73089;SDS011;61269;49.450;8.610;2022-12-26T06:41:03;5.65;;;2.60;;
73089;SDS011;61269;49.450;8.610;2022-12-26T06:43:32;6.63;;;2.50;;
73089;SDS011;61269;49.450;8.610;2022-12-26T06:46:00;6.38;;;2.70;;
73089;SDS011;61269;49.450;8.610;2022-12-26T06:48:30;8.15;;;2.42;;
73089;SDS011;61269;49.450;8.610;2022-12-26T06:51:01;7.03;;;2.75;;
73089;SDS011;61269;49.450;8.610;2022-12-26T06:53:30;6.30;;;2.63;;
73089;SDS011;61269;49.450;8.610;2022-12-26T06:56:05;7.07;;;2.97;;
73089;SDS011;61269;49.450;8.610;2022-12-26T06:58:34;6.40;;;2.60;;
73089;SDS011;61269;49.450;8.610;2022-12-26T07:01:02;5.85;;;3.05;;
73089;SDS011;61269;49.450;8.610;2022-12-26T07:03:31;5.45;;;2.80;;
73089;SDS011;61269;49.450;8.610;2022-12-26T07:06:03;7.47;;;3.22;;
73089;SDS011;61269;49.450;8.610;2022-12-26T07:08:32;7.27;;;3.33;;
73089;SDS011;61269;49.450;8.610;2022-12-26T07:11:00;8.02;;;3.17;;
73089;SDS011;61269;49.450;8.610;2022-12-26T07:13:30;8.48;;;3.05;;
73089;SDS011;61269;49.450;8.610;2022-12-26T07:15:58;7.28;;;3.38;;
73089;SDS011;61269;49.450;8.610;2022-12-26T07:18:27;7.45;;;3.20;;
73089;SDS011;61269;49.450;8.610;2022-12-26T07:20:55;7.37;;;3.23;;
73089;SDS011;61269;49.450;8.610;2022-12-26T07:23:23;7.88;;;3.50;;
73089;SDS011;61269;49.450;8.610;2022-12-26T07:25:51;8.63;;;3.67;;
73089;SDS011;61269;49.450;8.610;2022-12-26T07:28:20;8.25;;;3.63;;
73089;SDS011;61269;49.450;8.610;2022-12-26T07:30:49;6.88;;;3.28;;
73089;SDS011;61269;49.450;8.610;2022-12-26T07:33:17;17.50;;;3.90;;
73089;SDS011;61269;49.450;8.610;2022-12-26T07:35:45;8.10;;;3.10;;
73089;SDS011;61269;49.450;8.610;2022-12-26T07:38:14;11.60;;;3.97;;
73089;SDS011;61269;49.450;8.610;2022-12-26T07:40:42;8.63;;;3.45;;
73089;SDS011;61269;49.450;8.610;2022-12-26T07:43:10;8.20;;;3.40;;
73089;SDS011;61269;49.450;8.610;2022-12-26T07:45:38;8.60;;;3.73;;
73089;SDS011;61269;49.450;8.610;2022-12-26T07:48:13;11.52;;;3.95;;
73089;SDS011;61269;49.450;8.610;2022-12-26T07:50:41;8.63;;;4.05;;
73089;SDS011;61269;49.450;8.610;2022-12-26T07:53:13;9.88;;;3.60;;
73089;SDS011;61269;49.450;8.610;2022-12-26T07:55:41;9.75;;;3.97;;
73089;SDS011;61269;49.450;8.610;2022-12-26T07:58:09;10.93;;;4.93;;
73089;SDS011;61269;49.450;8.610;2022-12-26T08:00:37;10.85;;;4.90;;
73089;SDS011;61269;49.450;8.610;2022-12-26T08:03:07;10.60;;;4.47;;
73089;SDS011;61269;49.450;8.610;2022-12-26T08:05:38;11.57;;;4.88;;
73089;SDS011;61269;49.450;8.610;2022-12-26T08:08:07;11.23;;;4.97;;
73089;SDS011;61269;49.450;8.610;2022-12-26T08:10:35;11.13;;;5.33;;
73089;SDS011;61269;49.450;8.610;2022-12-26T08:13:03;12.80;;;5.32;;
73089;SDS011;61269;49.450;8.610;2022-12-26T08:15:31;11.43;;;4.50;;
73089;SDS011;61269;49.450;8.610;2022-12-26T08:17:59;7.65;;;3.67;;
73089;SDS011;61269;49.450;8.610;2022-12-26T08:20:27;8.23;;;3.63;;
73089;SDS011;61269;49.450;8.610;2022-12-26T08:22:57;11.90;;;4.27;;
73089;SDS011;61269;49.450;8.610;2022-12-26T08:25:26;9.07;;;3.63;;
73089;SDS011;61269;49.450;8.610;2022-12-26T08:27:54;9.65;;;4.07;;
73089;SDS011;61269;49.450;8.610;2022-12-26T08:30:22;9.07;;;4.40;;
73089;SDS011;61269;49.450;8.610;2022-12-26T08:32:51;7.55;;;3.30;;
73089;SDS011;61269;49.450;8.610;2022-12-26T08:35:19;7.53;;;3.70;;
73089;SDS011;61269;49.450;8.610;2022-12-26T08:37:47;8.45;;;3.67;;
73089;SDS011;61269;49.450;8.610;2022-12-26T08:40:16;9.82;;;4.15;;
73089;SDS011;61269;49.450;8.610;2022-12-26T08:43:04;7.18;;;3.60;;
73089;SDS011;61269;49.450;8.610;2022-12-26T08:45:56;8.15;;;3.60;;
73089;SDS011;61269;49.450;8.610;2022-12-26T08:48:25;8.83;;;3.60;;
73089;SDS011;61269;49.450;8.610;2022-12-26T08:50:57;9.00;;;3.65;;
73089;SDS011;61269;49.450;8.610;2022-12-26T08:53:27;8.23;;;3.58;;
73089;SDS011;61269;49.450;8.610;2022-12-26T08:55:57;7.05;;;3.80;;
73089;SDS011;61269;49.450;8.610;2022-12-26T08:58:26;9.93;;;3.78;;
73089;SDS011;61269;49.450;8.610;2022-12-26T09:01:03;8.83;;;3.83;;
73089;SDS011;61269;49.450;8.610;2022-12-26T09:03:33;7.28;;;3.60;;
73089;SDS011;61269;49.450;8.610;2022-12-26T09:06:01;7.03;;;3.70;;
73089;SDS011;61269;49.450;8.610;2022-12-26T09:08:32;10.13;;;3.85;;
73089;SDS011;61269;49.450;8.610;2022-12-26T09:11:03;9.05;;;3.60;;
73089;SDS011;61269;49.450;8.610;2022-12-26T09:13:32;7.83;;;3.37;;
73089;SDS011;61269;49.450;8.610;2022-12-26T09:16:05;7.82;;;3.22;;
73089;SDS011;61269;49.450;8.610;2022-12-26T09:18:34;7.68;;;3.70;;
73089;SDS011;61269;49.450;8.610;2022-12-26T09:21:03;8.88;;;3.83;;
73089;SDS011;61269;49.450;8.610;2022-12-26T09:23:32;11.00;;;4.38;;
73089;SDS011;61269;49.450;8.610;2022-12-26T09:26:06;9.63;;;4.33;;
73089;SDS011;61269;49.450;8.610;2022-12-26T09:28:36;9.60;;;4.22;;
73089;SDS011;61269;49.450;8.610;2022-12-26T09:31:04;9.13;;;4.10;;
73089;SDS011;61269;49.450;8.610;2022-12-26T09:33:33;11.38;;;4.25;;
73089;SDS011;61269;49.450;8.610;2022-12-26T09:36:03;7.97;;;3.15;;
73089;SDS011;61269;49.450;8.610;2022-12-26T09:38:40;9.67;;;4.07;;
73089;SDS011;61269;49.450;8.610;2022-12-26T09:41:15;7.65;;;3.45;;
73089;SDS011;61269;49.450;8.610;2022-12-26T09:43:57;7.97;;;3.20;;
73089;SDS011;61269;49.450;8.610;2022-12-26T09:46:30;8.93;;;3.67;;
73089;SDS011;61269;49.450;8.610;2022-12-26T09:49:00;5.60;;;2.97;;
73089;SDS011;61269;49.450;8.610;2022-12-26T09:51:30;8.37;;;3.40;;
73089;SDS011;61269;49.450;8.610;2022-12-26T09:54:01;9.07;;;3.45;;
73089;SDS011;61269;49.450;8.610;2022-12-26T09:56:35;8.35;;;3.20;;
73089;SDS011;61269;49.450;8.610;2022-12-26T09:59:24;7.78;;;3.10;;
73089;SDS011;61269;49.450;8.610;2022-12-26T10:01:52;7.68;;;3.05;;
73089;SDS011;61269;49.450;8.610;2022-12-26T10:04:22;10.37;;;3.37;;
73089;SDS011;61269;49.450;8.610;2022-12-26T10:06:58;8.90;;;3.40;;
73089;SDS011;61269;49.450;8.610;2022-12-26T10:09:39;8.75;;;3.83;;
73089;SDS011;61269;49.450;8.610;2022-12-26T10:12:16;8.73;;;3.58;;
73089;SDS011;61269;49.450;8.610;2022-12-26T10:14:54;10.15;;;3.25;;
73089;SDS011;61269;49.450;8.610;2022-12-26T10:17:26;7.50;;;3.50;;
73089;SDS011;61269;49.450;8.610;2022-12-26T10:20:04;8.55;;;3.42;;
73089;SDS011;61269;49.450;8.610;2022-12-26T10:22:54;8.02;;;3.28;;
73089;SDS011;61269;49.450;8.610;2022-12-26T10:25:34;9.30;;;3.60;;
73089;SDS011;61269;49.450;8.610;2022-12-26T10:28:10;6.88;;;3.20;;
73089;SDS011;61269;49.450;8.610;2022-12-26T10:30:44;9.03;;;3.10;;
73089;SDS011;61269;49.450;8.610;2022-12-26T10:33:13;6.88;;;3.05;;
73089;SDS011;61269;49.450;8.610;2022-12-26T10:35:44;7.55;;;3.13;;
73089;SDS011;61269;49.450;8.610;2022-12-26T10:38:14;6.88;;;2.88;;
73089;SDS011;61269;49.450;8.610;2022-12-26T10:40:51;6.22;;;2.88;;
73089;SDS011;61269;49.450;8.610;2022-12-26T10:43:25;7.67;;;3.00;;
73089;SDS011;61269;49.450;8.610;2022-12-26T10:46:01;7.65;;;3.42;;
73089;SDS011;61269;49.450;8.610;2022-12-26T10:48:42;8.18;;;3.78;;
73089;SDS011;61269;49.450;8.610;2022-12-26T10:51:10;7.43;;;3.30;;
73089;SDS011;61269;49.450;8.610;2022-12-26T10:53:40;8.35;;;3.33;;
73089;SDS011;61269;49.450;8.610;2022-12-26T10:56:10;7.23;;;3.23;;
73089;SDS011;61269;49.450;8.610;2022-12-26T10:58:45;8.02;;;2.78;;
73089;SDS011;61269;49.450;8.610;2022-12-26T11:01:30;8.15;;;3.05;;
73089;SDS011;61269;49.450;8.610;2022-12-26T11:04:00;7.43;;;2.92;;
73089;SDS011;61269;49.450;8.610;2022-12-26T11:06:31;6.10;;;3.20;;
73089;SDS011;61269;49.450;8.610;2022-12-26T11:08:59;7.97;;;3.10;;
73089;SDS011;61269;49.450;8.610;2022-12-26T11:11:28;6.28;;;2.97;;
73089;SDS011;61269;49.450;8.610;2022-12-26T11:14:33;8.00;;;3.00;;
73089;SDS011;61269;49.450;8.610;2022-12-26T11:17:03;7.28;;;2.65;;
73089;SDS011;61269;49.450;8.610;2022-12-26T11:19:33;7.85;;;2.90;;
73089;SDS011;61269;49.450;8.610;2022-12-26T11:25:09;5.55;;;2.90;;
73089;SDS011;61269;49.450;8.610;2022-12-26T11:27:40;6.07;;;2.30;;
73089;SDS011;61269;49.450;8.610;2022-12-26T11:30:14;6.57;;;2.80;;
73089;SDS011;61269;49.450;8.610;2022-12-26T11:32:49;5.90;;;2.42;;
73089;SDS011;61269;49.450;8.610;2022-12-26T11:35:21;6.93;;;2.40;;
73089;SDS011;61269;49.450;8.610;2022-12-26T11:37:50;6.70;;;2.72;;
73089;SDS011;61269;49.450;8.610;2022-12-26T11:40:22;6.13;;;2.90;;
73089;SDS011;61269;49.450;8.610;2022-12-26T11:42:53;6.30;;;2.45;;
73089;SDS011;61269;49.450;8.610;2022-12-26T11:45:25;6.70;;;2.70;;
73089;SDS011;61269;49.450;8.610;2022-12-26T11:48:01;5.30;;;2.70;;
73089;SDS011;61269;49.450;8.610;2022-12-26T11:50:29;7.00;;;2.60;;
73089;SDS011;61269;49.450;8.610;2022-12-26T11:53:04;8.15;;;2.70;;
73089;SDS011;61269;49.450;8.610;2022-12-26T11:55:34;7.03;;;2.88;;
73089;SDS011;61269;49.450;8.610;2022-12-26T11:58:17;7.85;;;2.83;;
73089;SDS011;61269;49.450;8.610;2022-12-26T12:01:03;6.23;;;2.20;;
73089;SDS011;61269;49.450;8.610;2022-12-26T12:03:34;5.72;;;2.50;;
73089;SDS011;61269;49.450;8.610;2022-12-26T12:06:16;5.22;;;2.60;;
73089;SDS011;61269;49.450;8.610;2022-12-26T12:08:51;5.82;;;2.42;;
73089;SDS011;61269;49.450;8.610;2022-12-26T12:11:33;5.57;;;2.70;;
73089;SDS011;61269;49.450;8.610;2022-12-26T12:14:09;5.90;;;2.57;;
73089;SDS011;61269;49.450;8.610;2022-12-26T12:16:46;5.20;;;2.63;;
73089;SDS011;61269;49.450;8.610;2022-12-26T12:19:21;6.30;;;2.70;;
73089;SDS011;61269;49.450;8.610;2022-12-26T12:21:59;7.45;;;2.90;;
73089;SDS011;61269;49.450;8.610;2022-12-26T12:24:45;7.68;;;3.50;;
73089;SDS011;61269;49.450;8.610;2022-12-26T12:27:25;6.40;;;3.17;;
73089;SDS011;61269;49.450;8.610;2022-12-26T12:30:00;6.05;;;2.40;;
73089;SDS011;61269;49.450;8.610;2022-12-26T12:32:35;5.28;;;2.13;;
73089;SDS011;61269;49.450;8.610;2022-12-26T12:35:15;6.18;;;3.05;;
73089;SDS011;61269;49.450;8.610;2022-12-26T12:37:56;6.55;;;2.33;;
73089;SDS011;61269;49.450;8.610;2022-12-26T12:40:34;6.00;;;2.50;;
73089;SDS011;61269;49.450;8.610;2022-12-26T12:43:08;6.53;;;2.78;;
73089;SDS011;61269;49.450;8.610;2022-12-26T12:45:42;6.05;;;3.08;;
73089;SDS011;61269;49.450;8.610;2022-12-26T12:48:25;6.45;;;3.00;;
73089;SDS011;61269;49.450;8.610;2022-12-26T12:51:04;5.80;;;2.60;;
73089;SDS011;61269;49.450;8.610;2022-12-26T12:53:45;6.67;;;2.67;;
73089;SDS011;61269;49.450;8.610;2022-12-26T12:56:25;5.82;;;2.35;;
73089;SDS011;61269;49.450;8.610;2022-12-26T12:58:56;6.03;;;2.75;;
73089;SDS011;61269;49.450;8.610;2022-12-26T13:01:31;6.65;;;2.80;;
73089;SDS011;61269;49.450;8.610;2022-12-26T13:04:03;6.32;;;2.70;;
73089;SDS011;61269;49.450;8.610;2022-12-26T13:06:33;6.37;;;3.00;;
73089;SDS011;61269;49.450;8.610;2022-12-26T13:09:04;5.45;;;2.75;;
73089;SDS011;61269;49.450;8.610;2022-12-26T13:11:39;7.05;;;2.50;;
73089;SDS011;61269;49.450;8.610;2022-12-26T13:14:12;5.10;;;2.60;;
73089;SDS011;61269;49.450;8.610;2022-12-26T13:16:44;5.15;;;2.40;;
73089;SDS011;61269;49.450;8.610;2022-12-26T13:19:17;5.03;;;2.20;;
73089;SDS011;61269;49.450;8.610;2022-12-26T13:21:46;5.18;;;2.03;;
73089;SDS011;61269;49.450;8.610;2022-12-26T13:24:16;4.32;;;2.17;;
73089;SDS011;61269;49.450;8.610;2022-12-26T13:26:51;4.32;;;1.95;;
73089;SDS011;61269;49.450;8.610;2022-12-26T13:29:28;7.85;;;2.20;;
73089;SDS011;61269;49.450;8.610;2022-12-26T13:32:01;4.67;;;1.90;;
73089;SDS011;61269;49.450;8.610;2022-12-26T13:34:32;3.90;;;1.75;;
73089;SDS011;61269;49.450;8.610;2022-12-26T13:37:00;5.20;;;2.08;;
73089;SDS011;61269;49.450;8.610;2022-12-26T13:39:35;5.10;;;2.28;;
73089;SDS011;61269;49.450;8.610;2022-12-26T13:42:16;5.60;;;2.50;;
73089;SDS011;61269;49.450;8.610;2022-12-26T13:54:23;4.93;;;2.40;;
73089;SDS011;61269;49.450;8.610;2022-12-26T13:56:59;5.80;;;1.92;;
73089;SDS011;61269;49.450;8.610;2022-12-26T14:00:00;6.33;;;2.70;;
73089;SDS011;61269;49.450;8.610;2022-12-26T14:11:55;5.18;;;1.80;;
73089;SDS011;61269;49.450;8.610;2022-12-26T14:14:30;5.40;;;1.80;;
73089;SDS011;61269;49.450;8.610;2022-12-26T14:17:13;4.53;;;1.60;;
73089;SDS011;61269;49.450;8.610;2022-12-26T14:19:49;4.20;;;1.80;;
73089;SDS011;61269;49.450;8.610;2022-12-26T14:22:30;3.22;;;1.33;;
73089;SDS011;61269;49.450;8.610;2022-12-26T14:25:11;3.75;;;1.77;;
73089;SDS011;61269;49.450;8.610;2022-12-26T14:27:46;3.77;;;1.80;;
73089;SDS011;61269;49.450;8.610;2022-12-26T14:30:18;3.83;;;1.92;;
73089;SDS011;61269;49.450;8.610;2022-12-26T14:33:01;4.25;;;1.70;;
73089;SDS011;61269;49.450;8.610;2022-12-26T14:35:38;4.43;;;2.00;;
73089;SDS011;61269;49.450;8.610;2022-12-26T14:38:18;5.10;;;2.22;;
73089;SDS011;61269;49.450;8.610;2022-12-26T14:40:59;5.43;;;2.03;;
73089;SDS011;61269;49.450;8.610;2022-12-26T14:43:34;5.00;;;2.05;;
73089;SDS011;61269;49.450;8.610;2022-12-26T14:46:03;6.00;;;2.30;;
73089;SDS011;61269;49.450;8.610;2022-12-26T14:51:31;4.50;;;2.08;;
73089;SDS011;61269;49.450;8.610;2022-12-26T15:06:22;6.75;;;2.53;;
73089;SDS011;61269;49.450;8.610;2022-12-26T15:15:15;6.90;;;2.50;;
73089;SDS011;61269;49.450;8.610;2022-12-26T15:17:54;5.90;;;2.60;;
73089;SDS011;61269;49.450;8.610;2022-12-26T15:20:44;8.48;;;3.03;;
73089;SDS011;61269;49.450;8.610;2022-12-26T15:23:30;5.63;;;2.17;;
73089;SDS011;61269;49.450;8.610;2022-12-26T15:29:14;6.18;;;2.50;;
73089;SDS011;61269;49.450;8.610;2022-12-26T15:31:53;5.70;;;2.80;;
73089;SDS011;61269;49.450;8.610;2022-12-26T15:34:34;5.88;;;2.50;;
73089;SDS011;61269;49.450;8.610;2022-12-26T15:37:10;6.13;;;2.70;;
73089;SDS011;61269;49.450;8.610;2022-12-26T15:39:44;8.68;;;3.92;;
73089;SDS011;61269;49.450;8.610;2022-12-26T15:42:19;5.75;;;2.38;;
73089;SDS011;61269;49.450;8.610;2022-12-26T15:45:07;5.70;;;2.55;;
73089;SDS011;61269;49.450;8.610;2022-12-26T15:47:57;5.00;;;1.92;;
73089;SDS011;61269;49.450;8.610;2022-12-26T15:50:30;15.57;;;4.57;;
73089;SDS011;61269;49.450;8.610;2022-12-26T15:53:05;5.38;;;2.30;;
73089;SDS011;61269;49.450;8.610;2022-12-26T15:55:44;8.52;;;3.83;;
73089;SDS011;61269;49.450;8.610;2022-12-26T15:58:29;10.95;;;4.88;;
73089;SDS011;61269;49.450;8.610;2022-12-26T16:01:11;9.13;;;4.65;;
73089;SDS011;61269;49.450;8.610;2022-12-26T16:03:41;12.03;;;5.10;;
73089;SDS011;61269;49.450;8.610;2022-12-26T16:09:11;8.35;;;4.60;;
73089;SDS011;61269;49.450;8.610;2022-12-26T16:11:48;10.23;;;5.70;;
73089;SDS011;61269;49.450;8.610;2022-12-26T16:14:23;8.88;;;3.70;;
73089;SDS011;61269;49.450;8.610;2022-12-26T16:17:07;8.63;;;3.90;;
73089;SDS011;61269;49.450;8.610;2022-12-26T16:19:38;9.18;;;3.92;;
73089;SDS011;61269;49.450;8.610;2022-12-26T16:22:09;7.40;;;3.47;;
73089;SDS011;61269;49.450;8.610;2022-12-26T16:24:56;6.47;;;2.70;;
73089;SDS011;61269;49.450;8.610;2022-12-26T16:27:24;7.82;;;2.70;;
73089;SDS011;61269;49.450;8.610;2022-12-26T16:29:53;5.77;;;1.97;;
73089;SDS011;61269;49.450;8.610;2022-12-26T16:32:25;7.32;;;2.90;;